createdAt,value
2022-12-12T00:02:54.511Z,100250.69
2022-12-12T00:08:00.264Z,100251.73
2022-12-12T00:13:05.855Z,100255.83
2022-12-12T00:18:11.247Z,100249.37
2022-12-12T00:23:17.692Z,100246.91
2022-12-12T00:28:23.618Z,100247.83
2022-12-12T00:33:28.998Z,100237.27
2022-12-12T00:38:34.777Z,100237.03
2022-12-12T00:43:41.346Z,100237.08
2022-12-12T00:48:47.131Z,100224.38
2022-12-12T00:53:53.622Z,100228.58
2022-12-12T00:58:59.378Z,100240.63
2022-12-12T01:04:05.036Z,100234.03
2022-12-12T01:09:10.486Z,100228.31
2022-12-12T01:14:16.140Z,100231.81
2022-12-12T01:19:21.550Z,100235.31
2022-12-12T01:24:27.004Z,100226.67
2022-12-12T01:29:33.931Z,100230.85
2022-12-12T01:34:39.381Z,100224.63
2022-12-12T01:39:44.828Z,100227.77
2022-12-12T01:44:54.204Z,100228.27
2022-12-12T01:50:02.612Z,100229.44
2022-12-12T01:55:11.064Z,100228.48
2022-12-12T02:00:17.907Z,100232.98
2022-12-12T02:05:26.390Z,100226.38
2022-12-12T02:10:31.836Z,100229.47
2022-12-12T02:16:01.116Z,100224.50
2022-12-12T02:21:38.472Z,100221.72
2022-12-12T02:27:12.496Z,100230.45
2022-12-12T02:32:45.123Z,100236.98
2022-12-12T02:38:08.677Z,100243.94
2022-12-12T02:43:28.878Z,100247.36
2022-12-12T02:48:44.330Z,100246.76
2022-12-12T02:53:49.817Z,100248.30
2022-12-12T02:58:55.230Z,100246.63
2022-12-12T03:04:24.487Z,100247.33
2022-12-12T03:09:41.981Z,100242.25
2022-12-12T03:15:06.017Z,100233.37
2022-12-12T03:20:17.158Z,100238.60
2022-12-12T03:25:34.707Z,100235.81
2022-12-12T03:30:46.841Z,100234.89
2022-12-12T03:36:11.415Z,100235.09
2022-12-12T03:41:20.421Z,100237.23
2022-12-12T03:46:31.775Z,100241.87
2022-12-12T03:51:43.007Z,100235.05
2022-12-12T03:57:08.072Z,100231.90
2022-12-12T04:02:19.582Z,100241.55
2022-12-12T04:07:28.076Z,100240.48
2022-12-12T04:13:00.543Z,100235.96
2022-12-12T04:18:27.656Z,100235.67
2022-12-12T04:23:54.360Z,100238.31
2022-12-12T04:29:08.924Z,100235.55
2022-12-12T04:34:20.408Z,100237.73
2022-12-12T04:39:27.122Z,100241.14
2022-12-12T04:44:35.441Z,100248.61
2022-12-12T04:49:43.903Z,100252.11
2022-12-12T04:54:52.320Z,100248.20
2022-12-12T04:59:58.337Z,100249.72
2022-12-12T05:05:06.768Z,100241.69
2022-12-12T05:10:15.049Z,100244.53
2022-12-12T05:15:21.633Z,100247.69
2022-12-12T05:20:27.144Z,100247.39
2022-12-12T05:25:33.142Z,100243.98
2022-12-12T05:30:38.823Z,100239.16
2022-12-12T05:35:44.239Z,100253.34
2022-12-12T05:40:50.781Z,100260.02
2022-12-12T05:45:56.296Z,100261.80
2022-12-12T05:51:04.840Z,100252.31
2022-12-12T05:56:11.654Z,100250.08
2022-12-12T06:01:17.176Z,100258.17
2022-12-12T06:06:24.271Z,100260.77
2022-12-12T06:11:29.814Z,100265.77
2022-12-12T06:16:36.797Z,100264.44
2022-12-12T06:21:42.411Z,100264.66
2022-12-12T06:26:47.793Z,100267.14
2022-12-12T06:31:53.387Z,100268.82
2022-12-12T06:36:58.951Z,100275.20
2022-12-12T06:42:04.845Z,100273.52
2022-12-12T06:47:10.225Z,100274.94
2022-12-12T06:52:15.588Z,100276.98
2022-12-12T06:57:21.718Z,100284.34
2022-12-12T07:02:29.920Z,100288.39
2022-12-12T07:07:34.369Z,100287.30
2022-12-12T07:12:39.824Z,100284.94
2022-12-12T07:17:45.207Z,100284.27
2022-12-12T07:22:51.230Z,100294.98
2022-12-12T07:27:56.677Z,100293.17
2022-12-12T07:33:02.126Z,100286.25
2022-12-12T07:38:07.744Z,100296.77
2022-12-12T07:43:13.117Z,100296.03
2022-12-12T07:48:18.569Z,100305.27
2022-12-12T07:53:23.960Z,100307.34
2022-12-12T07:58:29.456Z,100306.73
2022-12-12T08:03:34.841Z,100311.83
2022-12-12T08:08:40.473Z,100317.00
2022-12-12T08:13:46.523Z,100312.86
2022-12-12T08:18:53.656Z,100309.86
2022-12-12T08:24:03.496Z,100303.92
2022-12-12T08:29:09.656Z,100300.17
2022-12-12T08:34:15.095Z,100305.81
2022-12-12T08:39:20.479Z,100302.05
2022-12-12T08:44:25.847Z,100310.69
2022-12-12T08:49:31.460Z,100307.28
2022-12-12T08:54:37.705Z,100307.17
2022-12-12T08:59:43.221Z,100315.06
2022-12-12T09:04:48.603Z,100317.75
2022-12-12T09:09:53.984Z,100323.89
2022-12-12T09:14:59.365Z,100324.71
2022-12-12T09:20:05.760Z,100325.20
2022-12-12T09:25:13.329Z,100317.91
2022-12-12T09:30:19.400Z,100322.73
2022-12-12T09:35:24.781Z,100333.39
2022-12-12T09:40:54.414Z,100335.03
2022-12-12T09:46:01.186Z,100340.31
2022-12-12T09:51:06.734Z,100327.25
2022-12-12T09:56:26.968Z,100341.44
2022-12-12T10:01:44.644Z,100326.59
2022-12-12T10:06:55.799Z,100337.05
2022-12-12T10:12:08.071Z,100322.41
2022-12-12T10:17:17.699Z,100324.05
2022-12-12T10:22:59.177Z,100325.84
2022-12-12T10:28:19.911Z,100334.92
2022-12-12T10:33:37.028Z,100339.52
2022-12-12T10:38:45.454Z,100331.38
2022-12-12T10:43:59.620Z,100322.63
2022-12-12T10:49:08.123Z,100325.61
2022-12-12T10:54:16.563Z,100327.76
2022-12-12T10:59:25.006Z,100323.80
2022-12-12T11:04:32.709Z,100324.47
2022-12-12T11:09:40.968Z,100328.05
2022-12-12T11:14:51.650Z,100337.97
2022-12-12T11:19:59.933Z,100332.13
2022-12-12T11:25:06.412Z,100323.47
2022-12-12T11:30:29.512Z,100333.27
2022-12-12T11:35:43.870Z,100331.80
2022-12-12T11:40:46.669Z,100331.95
2022-12-12T11:46:04.276Z,100343.77
2022-12-12T11:51:10.966Z,100344.86
2022-12-12T11:56:28.151Z,100347.27
2022-12-12T12:01:48.680Z,100353.97
2022-12-12T12:07:14.713Z,100359.16
2022-12-12T12:12:25.829Z,100362.83
2022-12-12T12:18:07.531Z,100359.81
2022-12-12T12:23:39.150Z,100362.87
2022-12-12T12:29:08.666Z,100368.06
2022-12-12T12:34:29.109Z,100360.98
2022-12-12T12:39:37.533Z,100360.58
2022-12-12T12:44:58.172Z,100359.95
2022-12-12T12:50:21.483Z,100352.87
2022-12-12T12:55:29.927Z,100351.11
2022-12-12T13:00:37.336Z,100350.70
2022-12-12T13:05:49.935Z,100351.25
2022-12-12T13:10:58.359Z,100363.10
2022-12-12T13:16:19.202Z,100354.20
2022-12-12T13:21:36.372Z,100350.02
2022-12-12T13:26:44.813Z,100337.97
2022-12-12T13:32:19.239Z,100346.80
2022-12-12T13:37:25.261Z,100357.16
2022-12-12T13:42:50.173Z,100356.49
2022-12-12T13:47:58.597Z,100362.97
2022-12-12T13:53:13.184Z,100366.47
2022-12-12T13:58:24.210Z,100368.09
2022-12-12T14:03:31.770Z,100375.95
2022-12-12T14:08:39.868Z,100377.61
2022-12-12T14:13:47.558Z,100366.09
2022-12-12T14:19:02.127Z,100377.75
2022-12-12T14:24:30.121Z,100392.28
2022-12-12T14:29:38.545Z,100382.24
2022-12-12T14:34:47.439Z,100383.02
2022-12-12T14:39:55.865Z,100392.86
2022-12-12T14:45:01.247Z,100392.67
2022-12-12T14:50:15.045Z,100372.11
2022-12-12T14:55:20.933Z,100406.17
2022-12-12T15:00:28.150Z,100378.42
2022-12-12T15:05:33.535Z,100380.73
2022-12-12T15:10:40.723Z,100391.32
2022-12-12T15:15:46.204Z,100387.56
2022-12-12T15:20:53.201Z,100391.61
2022-12-12T15:25:58.731Z,100390.42
2022-12-12T15:31:04.278Z,100396.61
2022-12-12T15:36:27.842Z,100399.09
2022-12-12T15:41:34.118Z,100389.14
2022-12-12T15:46:39.772Z,100396.61
2022-12-12T15:51:45.268Z,100391.87
2022-12-12T15:56:51.875Z,100403.55
2022-12-12T16:01:57.559Z,100414.55
2022-12-12T16:07:06.025Z,100411.47
2022-12-12T16:12:11.473Z,100418.27
2022-12-12T16:17:28.352Z,100416.54
2022-12-12T16:22:41.037Z,100416.34
2022-12-12T16:27:49.338Z,100418.11
2022-12-12T16:32:55.432Z,100410.91
2022-12-12T16:38:00.943Z,100423.13
2022-12-12T16:43:11.150Z,100422.71
2022-12-12T16:48:16.624Z,100433.11
2022-12-12T16:53:22.178Z,100427.31
2022-12-12T16:58:27.642Z,100427.06
2022-12-12T17:03:33.771Z,100431.50
2022-12-12T17:08:39.369Z,100425.79
2022-12-12T17:13:51.181Z,100423.61
2022-12-12T17:18:56.568Z,100422.59
2022-12-12T17:24:02.359Z,100439.27
2022-12-12T17:29:09.083Z,100442.48
2022-12-12T17:34:14.641Z,100441.00
2022-12-12T17:39:20.124Z,100452.75
2022-12-12T17:44:25.844Z,100455.94
2022-12-12T17:49:31.414Z,100454.00
2022-12-12T17:54:38.569Z,100449.14
2022-12-12T17:59:44.231Z,100457.08
2022-12-12T18:04:50.609Z,100469.41
2022-12-12T18:09:56.107Z,100452.30
2022-12-12T18:15:01.997Z,100477.35
2022-12-12T18:20:08.351Z,100465.72
2022-12-12T18:25:13.798Z,100474.16
2022-12-12T18:30:19.393Z,100481.46
2022-12-12T18:35:25.053Z,100480.84
2022-12-12T18:40:30.519Z,100483.95
2022-12-12T18:45:39.432Z,100492.28
2022-12-12T18:50:44.845Z,100497.94
2022-12-12T18:55:50.297Z,100497.35
2022-12-12T19:00:55.778Z,100497.09
2022-12-12T19:06:02.764Z,100494.83
2022-12-12T19:11:09.737Z,100519.43
2022-12-12T19:16:18.018Z,100493.91
2022-12-12T19:21:27.583Z,100491.75
2022-12-12T19:26:32.963Z,100485.86
2022-12-12T19:31:38.759Z,100487.87
2022-12-12T19:36:44.490Z,100490.91
2022-12-12T19:41:49.954Z,100486.81
2022-12-12T19:46:55.530Z,100491.22
2022-12-12T19:52:02.199Z,100479.96
2022-12-12T19:57:14.364Z,100475.74
2022-12-12T20:02:20.026Z,100489.69
2022-12-12T20:07:25.533Z,100495.03
2022-12-12T20:12:32.051Z,100495.01
2022-12-12T20:17:37.464Z,100501.67
2022-12-12T20:22:42.866Z,100499.53
2022-12-12T20:27:48.251Z,100503.47
2022-12-12T20:32:53.848Z,100499.64
